createdAt,value
2023-02-07T00:05:20.076Z,57.87
2023-02-07T00:10:42.458Z,56.67
2023-02-07T00:16:04.715Z,48.33
2023-02-07T00:21:30.913Z,51.57
2023-02-07T00:26:53.971Z,33.00
2023-02-07T00:32:16.284Z,50.47
2023-02-07T00:37:38.665Z,33.23
2023-02-07T00:43:00.854Z,34.57
2023-02-07T00:48:23.695Z,31.20
2023-02-07T00:53:48.499Z,30.30
2023-02-07T00:59:11.117Z,23.00
2023-02-07T01:04:33.432Z,19.43
2023-02-07T01:09:56.213Z,19.57
2023-02-07T01:15:19.440Z,16.47
2023-02-07T01:20:41.801Z,17.30
2023-02-07T01:26:04.837Z,15.67
2023-02-07T01:31:28.504Z,14.23
2023-02-07T01:36:51.153Z,13.70
2023-02-07T01:42:13.478Z,12.55
2023-02-07T01:47:38.249Z,12.33
2023-02-07T01:53:01.525Z,12.13
2023-02-07T01:58:25.729Z,11.80
2023-02-07T02:03:50.456Z,11.73
2023-02-07T02:09:17.601Z,9.38
2023-02-07T02:15:09.340Z,9.73
2023-02-07T02:20:54.465Z,9.73
2023-02-07T02:26:27.617Z,10.15
2023-02-07T02:32:43.020Z,10.57
2023-02-07T02:38:15.993Z,11.13
2023-02-07T02:44:01.172Z,12.45
2023-02-07T02:49:26.406Z,12.70
2023-02-07T02:54:51.460Z,12.53
2023-02-07T03:00:52.625Z,14.10
2023-02-07T03:06:28.597Z,13.90
2023-02-07T03:12:18.262Z,16.27
2023-02-07T03:17:53.591Z,15.03
2023-02-07T03:23:18.943Z,14.77
2023-02-07T03:28:43.543Z,15.80
2023-02-07T03:34:11.258Z,14.83
2023-02-07T03:39:33.867Z,15.27
2023-02-07T03:44:59.115Z,13.50
2023-02-07T03:50:22.321Z,13.90
2023-02-07T03:55:45.565Z,10.20
2023-02-07T04:01:07.854Z,8.83
2023-02-07T04:06:30.681Z,8.57
2023-02-07T04:11:54.622Z,7.97
2023-02-07T04:17:17.096Z,8.40
2023-02-07T04:22:40.197Z,8.83
2023-02-07T04:28:02.669Z,7.67
2023-02-07T04:33:26.320Z,7.67
2023-02-07T04:38:48.968Z,6.93
2023-02-07T04:44:11.314Z,6.67
2023-02-07T04:49:34.547Z,5.90
2023-02-07T04:54:57.337Z,5.58
2023-02-07T05:00:20.617Z,5.60
2023-02-07T05:05:45.954Z,4.30
2023-02-07T05:11:14.511Z,4.20
2023-02-07T05:16:36.780Z,4.17
2023-02-07T05:21:59.148Z,4.60
2023-02-07T05:27:21.381Z,4.70
2023-02-07T05:33:01.752Z,4.13
2023-02-07T05:38:27.627Z,3.60
2023-02-07T05:43:50.423Z,3.30
2023-02-07T05:49:12.663Z,3.97
2023-02-07T05:54:35.123Z,4.50
2023-02-07T05:59:57.662Z,4.90
2023-02-07T06:05:25.372Z,3.90
2023-02-07T06:10:47.568Z,3.93
2023-02-07T06:16:11.283Z,4.57
2023-02-07T06:21:45.829Z,8.17
2023-02-07T06:26:59.133Z,7.57
2023-02-07T06:32:21.563Z,5.73
2023-02-07T06:37:43.847Z,5.00
2023-02-07T06:43:08.917Z,5.93
2023-02-07T06:48:30.527Z,5.70
2023-02-07T06:53:52.722Z,4.40
2023-02-07T06:59:14.985Z,3.03
2023-02-07T07:04:37.499Z,2.80
2023-02-07T07:09:59.756Z,3.23
2023-02-07T07:15:23.616Z,3.43
2023-02-07T07:20:46.024Z,4.10
2023-02-07T07:26:08.602Z,3.90
2023-02-07T07:31:31.093Z,3.45
2023-02-07T07:36:55.072Z,4.03
2023-02-07T07:42:18.372Z,4.10
2023-02-07T07:47:40.672Z,4.27
2023-02-07T07:53:02.982Z,4.72
2023-02-07T07:58:25.543Z,5.10
2023-02-07T08:03:48.131Z,4.85
2023-02-07T08:09:10.391Z,5.43
2023-02-07T08:14:32.705Z,5.17
2023-02-07T08:19:55.002Z,4.40
2023-02-07T08:25:17.434Z,4.90
2023-02-07T08:30:40.824Z,4.20
2023-02-07T08:36:05.670Z,4.60
2023-02-07T08:41:27.883Z,5.53
2023-02-07T08:46:50.160Z,5.00
2023-02-07T08:52:12.795Z,5.20
2023-02-07T08:57:35.032Z,5.60
2023-02-07T09:02:57.243Z,4.67
2023-02-07T09:08:20.195Z,3.90
2023-02-07T09:13:44.639Z,4.40
2023-02-07T09:19:07.008Z,3.80
2023-02-07T09:24:29.295Z,4.17
2023-02-07T09:29:52.141Z,3.50
2023-02-07T09:35:14.419Z,3.23
2023-02-07T09:40:39.450Z,3.10
2023-02-07T09:46:07.384Z,2.95
2023-02-07T09:51:32.545Z,3.40
2023-02-07T09:56:55.217Z,3.10
2023-02-07T10:02:23.499Z,3.27
2023-02-07T10:07:46.044Z,2.35
2023-02-07T10:13:35.550Z,3.30
2023-02-07T10:19:11.807Z,2.83
2023-02-07T10:24:50.883Z,2.87
2023-02-07T10:30:23.326Z,3.17
2023-02-07T10:35:50.817Z,2.87
2023-02-07T10:41:20.852Z,2.97
2023-02-07T10:46:44.373Z,2.70
2023-02-07T10:52:26.137Z,3.20
2023-02-07T10:57:54.264Z,2.00
2023-02-07T11:03:23.038Z,1.75
2023-02-07T11:08:50.131Z,1.90
2023-02-07T11:14:18.621Z,1.72
2023-02-07T11:19:43.475Z,1.32
2023-02-07T11:25:10.168Z,1.70
2023-02-07T11:30:40.202Z,2.30
2023-02-07T11:36:19.385Z,2.60
2023-02-07T11:41:46.534Z,2.30
2023-02-07T11:47:11.463Z,2.67
2023-02-07T11:52:35.354Z,2.93
2023-02-07T11:57:58.868Z,3.27
2023-02-07T12:03:34.677Z,2.50
2023-02-07T12:08:58.714Z,2.47
2023-02-07T12:14:38.232Z,2.10
2023-02-07T12:20:13.925Z,1.13
2023-02-07T12:25:44.036Z,2.00
2023-02-07T12:31:11.360Z,2.30
2023-02-07T12:36:46.763Z,2.08
2023-02-07T12:42:16.908Z,2.08
2023-02-07T12:47:50.044Z,3.80
2023-02-07T12:53:23.181Z,5.20
2023-02-07T12:59:07.093Z,5.00
2023-02-07T13:05:05.789Z,4.37
2023-02-07T13:10:45.009Z,3.30
2023-02-07T13:16:32.760Z,3.25
2023-02-07T13:22:00.373Z,3.30
2023-02-07T13:27:26.522Z,3.77
2023-02-07T13:32:49.715Z,3.65
2023-02-07T13:38:36.045Z,4.25
2023-02-07T13:44:38.576Z,4.03
2023-02-07T13:50:20.051Z,3.50
2023-02-07T13:55:56.576Z,3.70
2023-02-07T14:01:32.909Z,3.30
2023-02-07T14:07:00.156Z,4.43
2023-02-07T14:12:45.737Z,4.30
2023-02-07T14:18:41.228Z,4.60
2023-02-07T14:24:24.612Z,6.00
2023-02-07T14:30:03.693Z,5.00
2023-02-07T14:35:34.208Z,5.27
2023-02-07T14:41:11.222Z,5.00
2023-02-07T14:46:41.299Z,5.50
2023-02-07T14:52:38.412Z,5.50
2023-02-07T14:58:20.834Z,6.10
2023-02-07T15:03:44.755Z,6.40
2023-02-07T15:09:19.954Z,5.83
2023-02-07T15:14:48.306Z,7.27
2023-02-07T15:20:13.141Z,8.27
2023-02-07T15:25:36.631Z,6.50
2023-02-07T15:31:13.917Z,8.03
2023-02-07T15:36:50.680Z,7.17
2023-02-07T15:42:14.788Z,7.67
2023-02-07T15:47:50.858Z,8.83
2023-02-07T15:53:18.468Z,9.28
2023-02-07T15:58:43.993Z,9.50
2023-02-07T16:04:09.723Z,8.90
2023-02-07T16:09:52.796Z,9.35
2023-02-07T16:15:29.545Z,9.65
2023-02-07T16:20:54.510Z,8.77
2023-02-07T16:26:17.796Z,9.13
2023-02-07T16:31:41.096Z,10.00
2023-02-07T16:37:06.246Z,8.23
2023-02-07T16:42:30.601Z,8.28
2023-02-07T16:47:52.914Z,11.12
2023-02-07T16:53:15.749Z,10.43
2023-02-07T16:58:41.148Z,9.97
2023-02-07T17:04:04.393Z,11.68
2023-02-07T17:09:43.505Z,13.10
2023-02-07T17:15:05.711Z,11.57
2023-02-07T17:20:39.237Z,11.43
2023-02-07T17:26:02.848Z,11.27
2023-02-07T17:31:25.448Z,13.03
2023-02-07T17:36:55.805Z,13.40
2023-02-07T17:42:18.940Z,15.87
2023-02-07T17:47:41.320Z,14.20
2023-02-07T17:53:03.952Z,14.63
2023-02-07T17:58:27.014Z,14.70
2023-02-07T18:03:49.222Z,12.55
2023-02-07T18:09:11.596Z,14.90
2023-02-07T18:14:34.017Z,14.07
2023-02-07T18:19:56.698Z,13.53
2023-02-07T18:25:19.606Z,12.95
2023-02-07T18:30:43.409Z,14.00
2023-02-07T18:36:09.296Z,12.30
2023-02-07T18:41:36.420Z,13.37
2023-02-07T18:46:58.760Z,13.40
2023-02-07T18:52:21.105Z,15.20
2023-02-07T18:57:43.405Z,16.17
2023-02-07T19:03:06.429Z,16.83
2023-02-07T19:08:28.792Z,17.13
2023-02-07T19:13:52.745Z,17.95
2023-02-07T19:19:18.372Z,18.87
2023-02-07T19:24:42.693Z,19.48
2023-02-07T19:30:07.045Z,19.62
2023-02-07T19:35:29.719Z,26.40
2023-02-07T19:40:52.046Z,26.57
2023-02-07T19:46:14.808Z,20.95
2023-02-07T19:51:39.748Z,20.80
2023-02-07T19:57:02.577Z,21.30
2023-02-07T20:02:25.810Z,27.13
2023-02-07T20:07:48.676Z,24.07
2023-02-07T20:13:11.140Z,38.90
2023-02-07T20:18:33.703Z,24.75
2023-02-07T20:23:57.846Z,25.20
2023-02-07T20:29:23.559Z,26.20
2023-02-07T20:34:45.869Z,28.85
2023-02-07T20:40:08.213Z,36.33
2023-02-07T20:45:30.542Z,25.90
2023-02-07T20:50:52.785Z,27.87
2023-02-07T20:56:19.219Z,28.00
2023-02-07T21:01:43.682Z,30.77
2023-02-07T21:07:06.896Z,27.77
2023-02-07T21:12:29.668Z,26.77
2023-02-07T21:17:52.024Z,27.07
2023-02-07T21:23:14.226Z,30.07
2023-02-07T21:28:37.560Z,24.63
2023-02-07T21:34:01.006Z,29.03
2023-02-07T21:39:25.458Z,26.37
2023-02-07T21:44:49.364Z,28.77
2023-02-07T21:50:18.075Z,26.87
2023-02-07T21:55:41.619Z,29.10
2023-02-07T22:01:05.755Z,30.00
2023-02-07T22:06:29.366Z,28.97
2023-02-07T22:11:55.026Z,28.90
2023-02-07T22:17:17.374Z,30.60
2023-02-07T22:22:39.678Z,28.57
2023-02-07T22:28:03.140Z,29.00
2023-02-07T22:33:26.726Z,31.30
2023-02-07T22:38:49.046Z,31.33
2023-02-07T22:44:12.101Z,32.90
2023-02-07T22:49:34.419Z,31.50
2023-02-07T22:54:56.903Z,32.50
2023-02-07T23:00:20.652Z,33.30
2023-02-07T23:05:43.697Z,32.93
2023-02-07T23:11:06.008Z,31.93
2023-02-07T23:16:35.435Z,32.98
2023-02-07T23:21:57.887Z,34.47
2023-02-07T23:27:20.585Z,35.07
2023-02-07T23:32:42.835Z,35.63
2023-02-07T23:38:06.828Z,34.00
2023-02-07T23:43:29.950Z,33.87
2023-02-07T23:48:52.223Z,34.10
2023-02-07T23:54:15.678Z,34.58
2023-02-07T23:59:38.036Z,33.50
